Time;durP1;ratioP1;P1;durP2;ratioP2;P2;SDS_P1;SDS_P2;PMS_P1;PMS_P2;Temp;Humidity;BMP_temperature;BMP_pressure;BME280_temperature;BME280_humidity;BME280_pressure;Samples;Min_cycle;Max_cycle;Signal;HPM_P1;HPM_P2
2023/06/13 00:00:05;;;;;;;5.90;3.20;;;22.50;46.80;;;;;;5053582;28;20017;-83
2023/06/13 00:02:31;;;;;;;6.13;2.95;;;22.50;46.90;;;;;;5054880;28;20032;-82
2023/06/13 00:04:57;;;;;;;5.57;2.40;;;22.40;47.00;;;;;;5054783;28;20473;-83
2023/06/13 00:07:23;;;;;;;7.60;3.10;;;22.40;47.20;;;;;;5053578;28;20079;-83
2023/06/13 00:09:49;;;;;;;4.43;2.80;;;22.30;47.20;;;;;;5051514;28;20049;-84
2023/06/13 00:12:20;;;;;;;7.55;3.28;;;22.30;47.30;;;;;;5036726;28;20363;-84
2023/06/13 00:14:50;;;;;;;4.40;2.38;;;22.20;47.30;;;;;;5052479;28;20025;-82
2023/06/13 00:17:16;;;;;;;6.22;2.90;;;22.20;47.40;;;;;;5054368;28;20036;-83
2023/06/13 00:19:43;;;;;;;6.03;2.83;;;22.20;47.70;;;;;;5054526;28;20033;-83
2023/06/13 00:22:14;;;;;;;5.68;3.30;;;22.10;47.80;;;;;;5053508;28;20029;-84
2023/06/13 00:24:43;;;;;;;5.45;2.53;;;22.10;47.90;;;;;;5054623;28;20024;-84
2023/06/13 00:27:10;;;;;;;6.55;2.78;;;22.00;48.00;;;;;;5054417;28;20449;-84
2023/06/13 00:29:36;;;;;;;5.05;2.85;;;22.00;48.10;;;;;;5054628;28;20492;-83
2023/06/13 00:32:01;;;;;;;5.63;2.65;;;22.00;48.30;;;;;;5053082;28;20022;-84
2023/06/13 00:34:27;;;;;;;4.32;2.40;;;21.90;48.50;;;;;;5053126;28;20091;-84
2023/06/13 00:36:55;;;;;;;5.53;2.97;;;21.90;48.70;;;;;;5052964;28;20029;-84
2023/06/13 00:39:21;;;;;;;5.68;2.75;;;21.80;48.80;;;;;;5036592;28;20025;-84
2023/06/13 00:41:47;;;;;;;7.93;2.75;;;21.80;48.90;;;;;;5053994;28;20033;-83
2023/06/13 00:44:12;;;;;;;5.97;2.85;;;21.80;49.00;;;;;;5054565;28;20025;-83
2023/06/13 00:46:39;;;;;;;5.53;2.92;;;21.70;49.10;;;;;;5053082;28;20370;-83
2023/06/13 00:49:06;;;;;;;5.72;2.80;;;21.70;49.10;;;;;;5036589;28;20044;-82
2023/06/13 00:51:35;;;;;;;5.30;2.70;;;21.60;49.20;;;;;;5052905;28;20112;-83
2023/06/13 00:54:02;;;;;;;6.00;2.58;;;21.60;49.20;;;;;;5053883;28;20470;-83
2023/06/13 00:56:29;;;;;;;5.75;3.03;;;21.60;49.20;;;;;;5053848;28;20039;-84
2023/06/13 00:59:04;;;;;;;4.80;2.70;;;21.50;49.30;;;;;;5053923;28;20025;-84
2023/06/13 01:01:30;;;;;;;8.13;3.08;;;21.50;49.50;;;;;;5035879;28;20123;-83
2023/06/13 01:03:59;;;;;;;6.53;2.40;;;21.40;49.50;;;;;;5053709;28;20025;-83
2023/06/13 01:06:25;;;;;;;5.55;3.17;;;21.40;49.60;;;;;;5053886;28;20053;-85
2023/06/13 01:08:53;;;;;;;6.07;2.72;;;21.40;49.60;;;;;;5053667;28;20040;-84
2023/06/13 01:11:45;;;;;;;9.55;2.72;;;21.30;49.50;;;;;;5052374;28;20517;-83
2023/06/13 01:14:20;;;;;;;7.65;3.13;;;21.30;49.60;;;;;;5053631;28;20028;-83
2023/06/13 01:16:51;;;;;;;4.65;2.75;;;21.20;49.60;;;;;;5052324;28;20108;-84
2023/06/13 01:19:39;;;;;;;5.88;2.55;;;21.20;49.80;;;;;;5052278;28;20028;-82
2023/06/13 01:22:12;;;;;;;6.35;2.60;;;21.10;50.10;;;;;;5052180;28;20029;-84
2023/06/13 01:25:00;;;;;;;5.93;2.38;;;21.10;50.00;;;;;;5053510;28;20070;-83
2023/06/13 01:27:28;;;;;;;8.60;2.92;;;21.10;50.10;;;;;;5052258;28;20028;-84
2023/06/13 01:29:54;;;;;;;5.22;2.67;;;21.10;50.20;;;;;;5052050;28;20028;-83
2023/06/13 01:32:24;;;;;;;4.88;2.30;;;21.00;50.40;;;;;;5052091;28;20032;-83
2023/06/13 01:34:50;;;;;;;7.00;2.75;;;21.00;50.50;;;;;;5053258;28;20029;-83
2023/06/13 01:37:17;;;;;;;5.70;2.92;;;20.90;50.50;;;;;;5052219;28;20163;-82
2023/06/13 01:39:43;;;;;;;6.20;3.22;;;20.90;50.80;;;;;;5053195;28;20542;-83
2023/06/13 01:42:08;;;;;;;6.95;2.80;;;20.80;51.20;;;;;;5051803;28;20029;-83
2023/06/13 01:44:34;;;;;;;5.25;2.53;;;20.80;51.70;;;;;;5051842;28;20021;-83
2023/06/13 01:47:26;;;;;;;6.65;2.65;;;20.80;51.70;;;;;;5052004;28;20101;-84
2023/06/13 01:50:19;;;;;;;5.03;2.60;;;20.80;52.00;;;;;;5054613;28;20136;-83
2023/06/13 01:53:02;;;;;;;6.30;2.92;;;20.70;52.20;;;;;;5057188;28;20500;-75
2023/06/13 01:55:50;;;;;;;6.95;3.00;;;20.70;52.20;;;;;;5056090;28;20060;-83
2023/06/13 01:58:22;;;;;;;6.45;2.78;;;20.60;52.40;;;;;;5057117;28;20120;-75
2023/06/13 02:00:55;;;;;;;5.30;2.80;;;20.60;52.50;;;;;;5039387;28;20025;-82
2023/06/13 02:03:21;;;;;;;5.65;2.85;;;20.50;52.60;;;;;;5055845;28;20062;-75
2023/06/13 02:05:47;;;;;;;5.07;3.10;;;20.50;52.40;;;;;;5057082;28;20021;-83
2023/06/13 02:08:13;;;;;;;6.05;2.95;;;20.50;52.60;;;;;;5055679;28;20025;-75
2023/06/13 02:10:39;;;;;;;6.82;3.50;;;20.40;52.60;;;;;;5038951;28;20075;-82
2023/06/13 02:13:05;;;;;;;9.07;2.83;;;20.40;52.60;;;;;;5056852;28;20053;-82
2023/06/13 02:15:31;;;;;;;9.13;2.95;;;20.40;52.60;;;;;;5055645;28;20074;-82
2023/06/13 02:17:56;;;;;;;6.55;3.38;;;20.30;52.60;;;;;;5055582;28;20037;-74
2023/06/13 02:20:22;;;;;;;6.15;3.28;;;20.30;52.70;;;;;;5038882;28;20044;-76
2023/06/13 02:22:48;;;;;;;5.25;2.88;;;20.20;52.90;;;;;;5055837;28;20021;-85
2023/06/13 02:25:14;;;;;;;5.20;3.10;;;20.20;53.00;;;;;;5056001;28;20499;-76
2023/06/13 02:27:40;;;;;;;5.93;2.83;;;20.20;53.10;;;;;;5055418;28;20108;-76
2023/06/13 02:30:08;;;;;;;5.43;3.15;;;20.10;53.10;;;;;;5039048;28;20025;-75
2023/06/13 02:32:36;;;;;;;5.85;3.80;;;20.10;53.10;;;;;;5055875;28;20446;-76
2023/06/13 02:35:02;;;;;;;7.05;3.42;;;20.10;53.10;;;;;;5039032;28;20032;-76
2023/06/13 02:37:28;;;;;;;6.97;3.40;;;20.10;53.20;;;;;;5055471;28;20037;-84
2023/06/13 02:39:53;;;;;;;7.90;3.47;;;20.00;53.60;;;;;;5055365;28;20076;-76
2023/06/13 02:42:19;;;;;;;6.88;3.38;;;19.90;53.50;;;;;;5055214;28;20103;-84
2023/06/13 02:44:44;;;;;;;6.45;3.30;;;19.90;53.60;;;;;;5055092;28;20485;-83
2023/06/13 02:47:10;;;;;;;6.78;3.17;;;19.90;53.70;;;;;;5055178;28;20033;-76
2023/06/13 02:49:36;;;;;;;7.32;3.78;;;19.90;53.80;;;;;;5038471;28;20025;-76
2023/06/13 02:52:01;;;;;;;7.28;4.22;;;19.80;53.60;;;;;;5054985;28;20053;-76
2023/06/13 02:54:27;;;;;;;7.22;4.05;;;19.80;53.80;;;;;;5055037;28;20108;-84
2023/06/13 02:56:53;;;;;;;8.77;4.72;;;19.80;53.90;;;;;;5054918;28;20033;-84
2023/06/13 02:59:19;;;;;;;6.43;3.88;;;19.70;53.90;;;;;;5055026;28;20029;-84
2023/06/13 03:01:45;;;;;;;8.00;4.43;;;19.70;53.90;;;;;;5038209;28;20123;-76
2023/06/13 03:04:11;;;;;;;9.50;4.30;;;19.70;54.00;;;;;;5038188;28;20060;-76
2023/06/13 03:06:40;;;;;;;10.82;4.30;;;19.60;54.30;;;;;;5054711;28;20525;-76
2023/06/13 03:09:06;;;;;;;7.57;3.55;;;19.60;54.50;;;;;;5054785;28;20031;-77
2023/06/13 03:11:32;;;;;;;8.40;4.22;;;19.60;55.20;;;;;;5056102;28;20053;-76
2023/06/13 03:13:57;;;;;;;7.28;3.92;;;19.50;54.70;;;;;;5021544;28;20482;-76
2023/06/13 03:16:24;;;;;;;10.32;4.07;;;19.50;54.80;;;;;;5037893;28;20041;-73
2023/06/13 03:18:50;;;;;;;6.85;3.60;;;19.50;54.90;;;;;;5056209;28;20109;-74
2023/06/13 03:21:15;;;;;;;9.65;4.30;;;19.50;54.90;;;;;;5054624;28;20116;-82
2023/06/13 03:23:41;;;;;;;8.88;3.72;;;19.50;55.10;;;;;;5055856;28;20055;-81
2023/06/13 03:26:09;;;;;;;7.93;4.32;;;19.40;55.50;;;;;;5055779;28;20029;-82
2023/06/13 03:28:35;;;;;;;7.82;3.63;;;19.40;55.50;;;;;;5054319;28;20542;-75
2023/06/13 03:31:00;;;;;;;7.82;3.67;;;19.40;55.50;;;;;;5037525;28;20029;-82
2023/06/13 03:33:26;;;;;;;7.53;3.58;;;19.40;55.80;;;;;;5054097;28;20037;-82
2023/06/13 03:35:52;;;;;;;5.53;3.20;;;19.40;55.90;;;;;;5054145;28;20037;-82
2023/06/13 03:38:18;;;;;;;5.72;3.70;;;19.30;56.00;;;;;;5054105;28;20029;-82
2023/06/13 03:40:44;;;;;;;7.70;4.20;;;19.20;56.00;;;;;;5055339;28;20036;-82
2023/06/13 03:43:10;;;;;;;9.02;3.88;;;19.30;56.20;;;;;;5054127;28;20036;-82
2023/06/13 03:45:36;;;;;;;7.43;3.47;;;19.20;56.20;;;;;;5037345;28;20385;-75
2023/06/13 03:48:01;;;;;;;7.75;3.70;;;19.20;56.20;;;;;;5037344;28;20383;-75
2023/06/13 03:50:27;;;;;;;8.18;3.17;;;19.20;56.30;;;;;;5020843;28;20025;-82
2023/06/13 03:52:53;;;;;;;7.75;3.95;;;19.10;56.10;;;;;;5055081;28;20103;-82
2023/06/13 03:55:18;;;;;;;6.25;3.20;;;19.10;56.20;;;;;;5053826;28;20033;-75
2023/06/13 03:57:45;;;;;;;7.40;3.67;;;19.10;56.30;;;;;;5054755;28;20021;-81
2023/06/13 04:00:11;;;;;;;7.00;3.33;;;19.10;56.40;;;;;;5053650;28;20112;-74
2023/06/13 04:02:37;;;;;;;6.88;3.45;;;19.10;56.40;;;;;;5053798;28;20021;-74
2023/06/13 04:05:04;;;;;;;6.18;3.33;;;19.00;56.40;;;;;;5055087;28;20021;-82
2023/06/13 04:07:33;;;;;;;7.05;3.30;;;19.10;56.40;;;;;;5055151;28;20382;-81
2023/06/13 04:10:01;;;;;;;6.40;3.17;;;19.00;56.40;;;;;;5054755;28;20045;-75
2023/06/13 04:12:27;;;;;;;9.68;3.15;;;19.00;56.40;;;;;;5054108;28;20116;-75
2023/06/13 04:14:52;;;;;;;8.23;3.50;;;19.00;56.60;;;;;;5036709;28;20025;-75
2023/06/13 04:17:18;;;;;;;6.60;3.80;;;19.00;56.70;;;;;;5053415;28;20446;-75
2023/06/13 04:19:44;;;;;;;7.60;3.15;;;19.00;56.70;;;;;;5054746;28;20037;-83
2023/06/13 04:22:10;;;;;;;7.55;3.35;;;19.00;56.70;;;;;;5053523;28;20083;-83
2023/06/13 04:24:36;;;;;;;14.18;3.80;;;19.00;56.70;;;;;;5053259;28;20028;-75
2023/06/13 04:27:03;;;;;;;4.97;3.13;;;19.00;56.80;;;;;;5036766;28;20025;-75
2023/06/13 04:29:29;;;;;;;7.30;3.55;;;19.00;56.90;;;;;;5054467;28;20021;-75
2023/06/13 04:31:55;;;;;;;7.28;3.78;;;19.00;57.00;;;;;;5054456;28;20033;-84
2023/06/13 04:34:23;;;;;;;6.85;3.67;;;19.00;57.00;;;;;;5054035;28;20035;-76
2023/06/13 04:36:55;;;;;;;8.77;3.85;;;19.00;56.90;;;;;;5032991;28;20112;-75
2023/06/13 04:39:21;;;;;;;6.07;3.35;;;19.10;56.90;;;;;;5032638;28;20044;-82
2023/06/13 04:41:48;;;;;;;6.18;3.72;;;19.10;57.00;;;;;;5041459;28;20108;-82
2023/06/13 04:44:14;;;;;;;5.63;3.40;;;19.10;56.80;;;;;;5049492;28;20104;-83
2023/06/13 04:46:43;;;;;;;6.68;3.67;;;19.10;56.80;;;;;;5051508;28;20124;-75
2023/06/13 04:49:09;;;;;;;5.07;3.08;;;19.10;56.90;;;;;;5051416;28;20029;-74
2023/06/13 04:51:34;;;;;;;5.82;3.42;;;19.10;56.80;;;;;;5035423;28;20043;-82
2023/06/13 04:54:00;;;;;;;6.38;3.08;;;19.10;57.30;;;;;;5044561;28;20033;-83
2023/06/13 04:56:27;;;;;;;6.68;3.72;;;19.10;56.70;;;;;;5042209;28;20041;-82
2023/06/13 04:59:00;;;;;;;8.20;3.00;;;19.20;56.60;;;;;;5037763;28;20104;-74
2023/06/13 05:01:32;;;;;;;6.18;3.45;;;19.20;56.50;;;;;;5046496;28;20068;-83
2023/06/13 05:03:58;;;;;;;9.52;3.63;;;19.20;56.40;;;;;;5051904;28;20108;-83
2023/06/13 05:06:24;;;;;;;6.82;3.50;;;19.30;56.50;;;;;;5053282;28;20420;-75
2023/06/13 05:08:52;;;;;;;6.38;3.08;;;19.30;56.50;;;;;;5037285;28;20045;-75
2023/06/13 05:11:17;;;;;;;7.45;3.60;;;19.30;56.40;;;;;;5034594;28;20045;-83
2023/06/13 05:13:43;;;;;;;7.82;3.58;;;19.40;56.40;;;;;;5014939;28;20041;-83
2023/06/13 05:16:09;;;;;;;8.23;3.55;;;19.40;56.40;;;;;;5030428;28;20091;-75
2023/06/13 05:18:35;;;;;;;6.93;3.55;;;19.40;56.40;;;;;;5050400;28;20060;-83
2023/06/13 05:21:01;;;;;;;7.40;3.20;;;19.50;56.30;;;;;;5053207;28;20496;-82
2023/06/13 05:23:28;;;;;;;5.22;3.13;;;19.50;56.30;;;;;;5052559;28;20033;-75
2023/06/13 05:25:54;;;;;;;6.35;2.88;;;19.50;56.10;;;;;;5030915;28;20040;-75
2023/06/13 05:28:20;;;;;;;5.78;2.85;;;19.50;56.10;;;;;;5032133;28;20021;-75
2023/06/13 05:30:46;;;;;;;6.18;3.47;;;19.60;56.20;;;;;;5039055;28;20022;-75
2023/06/13 05:33:14;;;;;;;6.45;3.03;;;19.60;56.20;;;;;;5041785;28;20098;-84
2023/06/13 05:35:40;;;;;;;5.95;2.90;;;19.60;56.10;;;;;;5041029;28;20043;-83
2023/06/13 05:38:09;;;;;;;11.90;3.67;;;19.70;56.20;;;;;;5045534;28;20070;-76
2023/06/13 05:40:35;;;;;;;7.97;3.38;;;19.70;56.10;;;;;;5029646;28;20091;-75
2023/06/13 05:43:01;;;;;;;9.07;3.53;;;19.70;56.10;;;;;;5042306;28;20021;-75
2023/06/13 05:45:27;;;;;;;7.30;3.67;;;19.80;56.10;;;;;;5034903;28;20032;-84
2023/06/13 05:47:52;;;;;;;5.30;2.88;;;19.80;56.00;;;;;;5015628;28;20136;-82
2023/06/13 05:50:18;;;;;;;5.47;3.00;;;19.80;56.00;;;;;;5031979;28;20044;-81
2023/06/13 05:52:43;;;;;;;8.40;3.58;;;19.80;56.10;;;;;;5015481;28;20107;-75
2023/06/13 05:55:09;;;;;;;7.82;3.20;;;19.80;56.20;;;;;;5015762;28;20017;-76
2023/06/13 05:57:45;;;;;;;7.20;3.25;;;19.80;56.30;;;;;;5033403;28;20034;-81
2023/06/13 06:00:13;;;;;;;9.05;3.35;;;19.90;56.30;;;;;;5033667;28;20036;-75
2023/06/13 06:02:43;;;;;;;7.90;3.53;;;19.90;56.30;;;;;;4998905;28;20036;-82
2023/06/13 06:05:11;;;;;;;6.55;3.40;;;20.00;56.40;;;;;;5033417;28;20041;-75
2023/06/13 06:07:37;;;;;;;7.00;3.33;;;20.00;56.50;;;;;;5050202;28;20068;-76
2023/06/13 06:10:05;;;;;;;7.38;3.35;;;20.00;56.40;;;;;;5035196;28;20064;-80
2023/06/13 06:12:31;;;;;;;6.22;3.35;;;20.10;56.40;;;;;;5050245;28;20108;-76
2023/06/13 06:14:56;;;;;;;10.73;3.03;;;20.10;56.40;;;;;;5049397;28;20123;-79
2023/06/13 06:17:22;;;;;;;5.88;2.92;;;20.20;56.50;;;;;;5032734;28;20017;-76
2023/06/13 06:19:48;;;;;;;5.47;2.95;;;20.20;56.40;;;;;;5032786;28;20025;-76
2023/06/13 06:22:14;;;;;;;5.45;2.97;;;20.30;56.40;;;;;;5032805;28;20030;-76
2023/06/13 06:24:39;;;;;;;10.00;4.05;;;20.30;56.30;;;;;;5032578;28;20037;-80
2023/06/13 06:27:05;;;;;;;5.63;3.22;;;20.40;56.30;;;;;;5050893;28;20057;-79
2023/06/13 06:29:31;;;;;;;6.20;3.15;;;20.40;56.30;;;;;;5052776;28;20070;-76
2023/06/13 06:31:57;;;;;;;4.55;2.78;;;20.50;56.30;;;;;;5051263;28;20033;-76
2023/06/13 06:34:22;;;;;;;5.63;3.15;;;20.50;56.20;;;;;;5051393;28;20029;-80
2023/06/13 06:36:48;;;;;;;7.70;3.15;;;20.60;56.20;;;;;;5037190;28;20374;-80
2023/06/13 06:39:15;;;;;;;7.28;3.63;;;20.60;56.10;;;;;;5055228;28;20385;-81
2023/06/13 06:41:41;;;;;;;7.45;3.28;;;20.70;56.10;;;;;;5054792;28;20028;-76
2023/06/13 06:44:08;;;;;;;8.07;3.22;;;20.70;56.00;;;;;;5055016;28;20100;-81
2023/06/13 06:46:33;;;;;;;6.57;2.80;;;20.80;55.90;;;;;;5055110;28;20035;-77
2023/06/13 06:48:59;;;;;;;8.98;3.13;;;20.80;55.90;;;;;;5055161;28;20025;-76
2023/06/13 06:51:25;;;;;;;6.25;3.30;;;20.90;55.80;;;;;;5054811;28;20049;-81
2023/06/13 06:53:50;;;;;;;7.10;3.45;;;21.00;55.90;;;;;;5055107;28;20378;-81
2023/06/13 06:56:17;;;;;;;8.02;3.50;;;21.00;56.00;;;;;;5054952;28;20040;-83
2023/06/13 06:58:42;;;;;;;6.32;3.53;;;21.00;56.20;;;;;;5054742;28;20439;-77
2023/06/13 07:01:08;;;;;;;9.73;3.45;;;21.10;56.20;;;;;;5054714;28;20017;-77
2023/06/13 07:03:35;;;;;;;5.75;3.10;;;21.10;56.10;;;;;;5038391;28;20033;-79
2023/06/13 07:06:01;;;;;;;7.47;3.45;;;21.20;56.10;;;;;;5038287;28;20036;-76
2023/06/13 07:08:28;;;;;;;6.03;3.00;;;21.20;56.00;;;;;;5021610;28;20029;-77
2023/06/13 07:10:54;;;;;;;7.30;3.00;;;21.30;56.00;;;;;;5054541;28;20358;-81
2023/06/13 07:13:19;;;;;;;6.45;2.95;;;21.30;56.00;;;;;;5054456;28;20025;-76
2023/06/13 07:15:45;;;;;;;7.45;3.60;;;21.40;55.90;;;;;;5037931;28;20033;-82
2023/06/13 07:18:11;;;;;;;5.05;3.00;;;21.40;55.80;;;;;;5055652;28;20033;-76
2023/06/13 07:20:36;;;;;;;5.93;2.83;;;21.50;55.80;;;;;;5021326;28;20025;-82
2023/06/13 07:23:02;;;;;;;6.72;3.15;;;21.60;56.50;;;;;;5055734;28;20053;-82
2023/06/13 07:25:28;;;;;;;6.18;3.30;;;21.60;55.80;;;;;;5054263;28;20112;-81
2023/06/13 07:27:54;;;;;;;8.75;3.10;;;21.70;55.70;;;;;;5054466;28;20025;-76
2023/06/13 07:30:19;;;;;;;5.47;3.45;;;21.70;55.50;;;;;;5037421;28;20040;-77
2023/06/13 07:32:45;;;;;;;5.88;2.70;;;21.80;55.30;;;;;;5021236;28;20029;-81
2023/06/13 07:35:13;;;;;;;4.82;2.85;;;21.90;55.80;;;;;;5055378;28;20051;-77
2023/06/13 07:37:38;;;;;;;6.20;3.20;;;21.90;55.10;;;;;;5054228;28;20537;-81
2023/06/13 07:40:07;;;;;;;6.65;2.80;;;22.00;54.90;;;;;;5054300;28;20120;-82
2023/06/13 07:42:33;;;;;;;7.50;3.28;;;22.00;54.70;;;;;;5037900;28;20025;-78
2023/06/13 07:44:58;;;;;;;6.95;2.85;;;22.10;54.70;;;;;;5037429;28;20083;-80
2023/06/13 07:47:24;;;;;;;6.22;3.22;;;22.10;54.70;;;;;;5053176;28;20064;-77
2023/06/13 07:49:49;;;;;;;5.90;3.10;;;22.20;54.70;;;;;;5037572;28;20359;-81
2023/06/13 07:52:15;;;;;;;5.50;2.65;;;22.30;54.80;;;;;;5037324;28;20055;-81
2023/06/13 07:54:41;;;;;;;6.20;3.55;;;22.30;54.70;;;;;;5055094;28;20033;-77
2023/06/13 07:57:06;;;;;;;5.70;2.80;;;22.40;54.70;;;;;;5037109;28;20385;-77
2023/06/13 07:59:32;;;;;;;5.50;3.15;;;22.50;54.60;;;;;;5020656;28;20131;-81
2023/06/13 08:01:58;;;;;;;5.32;3.05;;;22.50;54.50;;;;;;5036967;28;20075;-77
2023/06/13 08:04:25;;;;;;;7.72;2.90;;;22.50;54.50;;;;;;5053809;28;20033;-82
2023/06/13 08:06:50;;;;;;;6.05;3.25;;;22.60;54.20;;;;;;5055032;28;20389;-77
2023/06/13 08:09:17;;;;;;;6.90;3.10;;;22.70;53.80;;;;;;5020377;28;20017;-77
2023/06/13 08:11:44;;;;;;;7.65;3.03;;;22.80;53.60;;;;;;5054754;28;20040;-82
2023/06/13 08:14:12;;;;;;;4.75;2.90;;;22.80;53.50;;;;;;5037123;28;20524;-81
2023/06/13 08:16:38;;;;;;;5.43;2.90;;;22.80;53.40;;;;;;5053775;28;20048;-77
2023/06/13 08:19:04;;;;;;;8.85;3.22;;;22.90;53.30;;;;;;5054544;28;20425;-80
2023/06/13 08:21:31;;;;;;;7.50;3.33;;;22.90;53.10;;;;;;5053481;28;20038;-80
2023/06/13 08:23:59;;;;;;;6.50;3.03;;;23.00;53.20;;;;;;5036835;28;20389;-82
2023/06/13 08:26:32;;;;;;;5.03;2.83;;;23.00;53.00;;;;;;5054667;28;20025;-82
2023/06/13 08:28:59;;;;;;;7.32;2.75;;;23.10;52.70;;;;;;5054787;28;20022;-78
2023/06/13 08:31:25;;;;;;;5.07;2.95;;;23.20;52.50;;;;;;5053204;28;20377;-78
2023/06/13 08:33:51;;;;;;;4.82;2.80;;;23.30;52.30;;;;;;5053079;28;20029;-76
2023/06/13 08:36:17;;;;;;;5.65;3.47;;;23.30;52.10;;;;;;5054231;28;20029;-77
2023/06/13 08:38:43;;;;;;;12.73;3.60;;;23.40;51.90;;;;;;5036478;28;20025;-77
2023/06/13 08:41:10;;;;;;;5.88;2.92;;;23.40;51.60;;;;;;5053106;28;20405;-75
2023/06/13 08:43:37;;;;;;;6.80;3.35;;;23.50;51.50;;;;;;5052648;28;20029;-77
2023/06/13 08:46:03;;;;;;;5.47;2.85;;;23.60;51.40;;;;;;5036483;28;20104;-80
2023/06/13 08:48:32;;;;;;;5.97;3.05;;;23.60;51.20;;;;;;5053012;28;20058;-77
2023/06/13 08:50:59;;;;;;;6.35;2.72;;;23.60;51.00;;;;;;5052863;28;20105;-76
2023/06/13 08:53:28;;;;;;;6.15;3.70;;;23.70;51.00;;;;;;5052743;28;20089;-81
2023/06/13 08:55:55;;;;;;;8.32;2.65;;;23.80;50.60;;;;;;5053902;28;20124;-76
2023/06/13 08:58:24;;;;;;;6.13;2.88;;;23.80;50.40;;;;;;5052415;28;20036;-80
2023/06/13 09:00:50;;;;;;;5.45;3.28;;;23.90;50.40;;;;;;5053889;28;20466;-81
2023/06/13 09:03:17;;;;;;;5.57;3.00;;;24.00;50.20;;;;;;5035863;28;20029;-83
2023/06/13 09:05:43;;;;;;;4.57;2.55;;;24.10;50.10;;;;;;5052567;28;20025;-77
2023/06/13 09:08:10;;;;;;;6.03;2.85;;;24.10;49.80;;;;;;5053599;28;20116;-77
2023/06/13 09:10:36;;;;;;;4.75;2.72;;;24.20;49.70;;;;;;5053361;28;20401;-76
2023/06/13 09:13:03;;;;;;;4.40;2.58;;;24.20;49.50;;;;;;5053662;28;20029;-76
2023/06/13 09:15:30;;;;;;;4.55;2.83;;;24.30;49.30;;;;;;5052279;28;20041;-76
2023/06/13 09:17:57;;;;;;;6.45;2.47;;;24.40;48.90;;;;;;5035664;28;20029;-80
2023/06/13 09:20:22;;;;;;;6.10;2.83;;;24.40;48.60;;;;;;5053450;28;20029;-81
2023/06/13 09:22:49;;;;;;;4.30;2.50;;;24.50;48.40;;;;;;5052631;28;20083;-81
2023/06/13 09:25:18;;;;;;;7.07;2.90;;;24.60;48.20;;;;;;5053405;28;20480;-76
2023/06/13 09:27:43;;;;;;;4.70;2.42;;;24.60;48.10;;;;;;5052244;28;20131;-80
2023/06/13 09:30:10;;;;;;;7.07;2.78;;;24.70;48.10;;;;;;5053588;28;20170;-80
2023/06/13 09:32:36;;;;;;;6.95;2.95;;;24.80;48.10;;;;;;5052305;28;20087;-81
2023/06/13 09:35:05;;;;;;;4.65;2.80;;;24.80;47.90;;;;;;5053686;28;20037;-77
2023/06/13 09:37:32;;;;;;;6.25;2.40;;;24.90;47.70;;;;;;5035675;28;20040;-76
2023/06/13 09:40:05;;;;;;;3.67;2.28;;;25.00;47.50;;;;;;5052018;28;20021;-81
2023/06/13 09:42:31;;;;;;;3.92;2.30;;;25.10;47.30;;;;;;5053255;28;20098;-77
2023/06/13 09:44:57;;;;;;;6.25;2.42;;;25.20;47.10;;;;;;5036232;28;20075;-81
2023/06/13 09:47:24;;;;;;;5.75;2.30;;;25.20;46.50;;;;;;5053333;28;20033;-77
2023/06/13 09:49:58;;;;;;;4.88;2.78;;;25.30;46.00;;;;;;5053287;28;20025;-78
2023/06/13 09:52:25;;;;;;;5.32;2.60;;;25.40;45.70;;;;;;5053170;28;20366;-75
2023/06/13 09:54:52;;;;;;;8.00;2.65;;;25.40;45.40;;;;;;5052112;28;20025;-75
2023/06/13 09:57:21;;;;;;;5.13;2.75;;;25.50;45.30;;;;;;5051944;28;20025;-81
2023/06/13 09:59:48;;;;;;;4.75;2.67;;;25.50;45.10;;;;;;5053580;28;20104;-81
2023/06/13 10:02:20;;;;;;;4.97;2.22;;;25.60;44.80;;;;;;5052992;28;20043;-77
2023/06/13 10:04:50;;;;;;;5.28;2.42;;;25.70;44.70;;;;;;5053110;28;20055;-76
2023/06/13 10:07:17;;;;;;;4.57;2.42;;;25.70;44.60;;;;;;5051745;28;20025;-81
2023/06/13 10:09:43;;;;;;;4.75;2.45;;;25.80;44.50;;;;;;5051595;28;20081;-77
2023/06/13 10:12:17;;;;;;;4.85;2.83;;;25.90;44.30;;;;;;5038714;28;20072;-80
2023/06/13 10:14:50;;;;;;;4.70;2.70;;;25.90;44.10;;;;;;5040377;28;20381;-80
2023/06/13 10:17:18;;;;;;;3.38;2.03;;;26.00;44.10;;;;;;5057028;28;20029;-80
2023/06/13 10:19:47;;;;;;;5.03;2.72;;;26.10;44.10;;;;;;5057489;28;20469;-80
2023/06/13 10:22:13;;;;;;;5.22;2.58;;;26.20;43.80;;;;;;5055877;28;20021;-76
2023/06/13 10:24:40;;;;;;;3.95;2.30;;;26.30;43.40;;;;;;5038759;28;20029;-77
2023/06/13 10:27:09;;;;;;;4.60;2.85;;;26.30;43.20;;;;;;5055456;28;20067;-77
2023/06/13 10:29:44;;;;;;;4.80;2.65;;;26.40;43.10;;;;;;5056943;28;20029;-80
2023/06/13 10:32:16;;;;;;;4.13;2.28;;;26.50;42.80;;;;;;5057194;28;20117;-77
2023/06/13 10:35:03;;;;;;;5.72;2.40;;;26.60;42.70;;;;;;5055695;28;20397;-80
2023/06/13 10:38:02;;;;;;;5.93;2.80;;;26.70;42.50;;;;;;5055750;28;20032;-81
2023/06/13 10:40:58;;;;;;;4.43;2.70;;;26.80;42.30;;;;;;5056604;28;20455;-81
2023/06/13 10:43:34;;;;;;;3.53;2.58;;;26.90;42.20;;;;;;5055580;28;20025;-81
2023/06/13 10:46:05;;;;;;;7.22;2.88;;;27.20;42.10;;;;;;5056243;28;20096;-77
2023/06/13 10:48:48;;;;;;;4.85;3.33;;;27.40;41.80;;;;;;5055426;28;20021;-82
2023/06/13 10:51:22;;;;;;;11.15;2.92;;;27.60;41.70;;;;;;5056577;28;20029;-77
2023/06/13 10:54:06;;;;;;;4.68;2.85;;;27.80;41.50;;;;;;5054882;28;20439;-83
2023/06/13 10:56:34;;;;;;;3.80;2.53;;;28.00;41.30;;;;;;5056109;28;20105;-81
2023/06/13 10:59:08;;;;;;;7.03;2.80;;;28.20;41.30;;;;;;5056176;28;20029;-77
2023/06/13 11:01:35;;;;;;;5.95;2.22;;;28.40;41.10;;;;;;5054946;28;20424;-76
2023/06/13 11:04:28;;;;;;;5.82;2.25;;;28.60;41.10;;;;;;5038221;28;20025;-82
2023/06/13 11:07:25;;;;;;;6.35;2.80;;;28.80;41.30;;;;;;5036406;28;20052;-83
2023/06/13 11:10:10;;;;;;;3.75;2.83;;;29.00;40.50;;;;;;5054534;28;20460;-83
2023/06/13 11:12:36;;;;;;;6.70;2.35;;;29.20;40.20;;;;;;5054545;28;20028;-79
2023/06/13 11:15:02;;;;;;;8.80;2.60;;;29.40;40.20;;;;;;5055671;28;20378;-77
2023/06/13 11:17:27;;;;;;;3.25;2.30;;;29.70;40.10;;;;;;5054603;28;20027;-75
2023/06/13 11:19:56;;;;;;;4.95;2.33;;;29.80;39.90;;;;;;5054463;28;20116;-82
2023/06/13 11:22:22;;;;;;;5.57;3.15;;;30.00;39.60;;;;;;5054595;28;20029;-82
2023/06/13 11:24:49;;;;;;;4.38;2.25;;;30.10;39.30;;;;;;5054772;28;20052;-82
2023/06/13 11:27:16;;;;;;;4.70;2.63;;;30.20;38.90;;;;;;5055841;28;20035;-77
2023/06/13 11:29:45;;;;;;;6.55;3.00;;;30.40;38.60;;;;;;5054477;28;20033;-82
2023/06/13 11:32:12;;;;;;;4.13;2.83;;;30.60;38.30;;;;;;5054426;28;20036;-78
2023/06/13 11:34:50;;;;;;;4.82;2.90;;;30.80;38.20;;;;;;5054223;28;20021;-82
2023/06/13 11:37:30;;;;;;;6.20;3.00;;;31.00;37.90;;;;;;5055897;28;20029;-82
2023/06/13 11:39:57;;;;;;;6.60;2.88;;;31.30;37.70;;;;;;5054872;28;20112;-83
2023/06/13 11:42:23;;;;;;;3.75;2.53;;;31.40;37.50;;;;;;5056141;28;20025;-82
2023/06/13 11:44:50;;;;;;;6.72;2.97;;;31.60;37.20;;;;;;5056030;28;20018;-81
2023/06/13 11:47:16;;;;;;;7.85;2.40;;;31.60;36.80;;;;;;5054417;28;20041;-82
2023/06/13 11:49:52;;;;;;;4.35;2.03;;;31.80;36.70;;;;;;5054215;28;20048;-75
2023/06/13 11:52:18;;;;;;;4.65;2.92;;;31.90;36.80;;;;;;5053988;28;20021;-82
2023/06/13 11:54:47;;;;;;;4.28;2.45;;;32.10;36.60;;;;;;5020736;28;20036;-82
2023/06/13 11:57:16;;;;;;;3.45;2.42;;;32.40;36.40;;;;;;5053794;28;20040;-82
2023/06/13 11:59:43;;;;;;;4.40;2.20;;;32.60;36.20;;;;;;5055065;28;20039;-82
2023/06/13 12:02:09;;;;;;;5.03;2.17;;;32.60;35.90;;;;;;5055236;28;20512;-77
2023/06/13 12:04:35;;;;;;;5.10;2.42;;;32.80;35.90;;;;;;5055095;28;20424;-77
2023/06/13 12:07:06;;;;;;;6.07;2.42;;;32.90;35.90;;;;;;5036982;28;20025;-77
2023/06/13 12:09:32;;;;;;;5.47;2.13;;;33.00;36.00;;;;;;5055134;28;20547;-76
2023/06/13 12:11:58;;;;;;;4.95;2.60;;;33.20;36.00;;;;;;5054653;28;20037;-83
2023/06/13 12:14:24;;;;;;;4.55;2.70;;;33.30;35.80;;;;;;5054395;28;20044;-75
2023/06/13 12:16:51;;;;;;;4.90;2.42;;;33.50;35.70;;;;;;5036563;28;20040;-80
2023/06/13 12:19:22;;;;;;;5.78;2.72;;;33.60;35.50;;;;;;5054880;28;20057;-82
2023/06/13 12:21:50;;;;;;;5.38;2.55;;;33.70;35.20;;;;;;5054490;28;20785;-77
2023/06/13 12:24:16;;;;;;;5.68;2.22;;;33.80;34.80;;;;;;5036813;28;20017;-82
2023/06/13 12:26:44;;;;;;;5.03;2.50;;;33.90;34.70;;;;;;5053883;28;20036;-82
2023/06/13 12:29:16;;;;;;;6.28;2.10;;;34.10;34.40;;;;;;5054747;28;20049;-77
2023/06/13 12:31:44;;;;;;;4.88;2.42;;;34.30;34.00;;;;;;5037272;28;20469;-77
2023/06/13 12:34:31;;;;;;;4.95;2.90;;;34.40;33.80;;;;;;5053926;28;20107;-83
2023/06/13 12:37:04;;;;;;;5.13;2.50;;;34.60;33.70;;;;;;5054326;28;20412;-78
2023/06/13 12:39:30;;;;;;;4.10;2.80;;;34.90;33.80;;;;;;5054641;28;20040;-77
2023/06/13 12:42:00;;;;;;;3.55;2.20;;;35.00;33.60;;;;;;5052918;28;20037;-78
2023/06/13 12:44:30;;;;;;;7.70;2.67;;;35.30;33.10;;;;;;5052477;28;20072;-84
2023/06/13 12:46:59;;;;;;;3.55;2.35;;;35.40;32.80;;;;;;5054022;28;20071;-78
2023/06/13 12:49:25;;;;;;;4.78;2.30;;;35.60;33.60;;;;;;5052680;28;20027;-78